Time;durP1;ratioP1;P1;durP2;ratioP2;P2;SDS_P1;SDS_P2;PMS_P1;PMS_P2;Temp;Humidity;BMP_temperature;BMP_pressure;BME280_temperature;BME280_humidity;BME280_pressure;Samples;Min_cycle;Max_cycle;Signal;HPM_P1;HPM_P2
2023/04/23 00:01:38;;;;;;;;;;;17.80;69.50;;;18.10;44.97;98021.66;4927202;28;114399;-83
2023/04/23 00:04:07;;;;;;;;;;;17.80;69.50;;;18.07;44.71;98018.81;4924358;28;113692;-84
2023/04/23 00:06:36;;;;;;;;;;;16.40;68.30;;;18.04;44.66;98025.19;4925910;28;124968;-82
2023/04/23 00:09:03;;;;;;;;;;;17.80;70.40;;;17.98;44.84;98021.94;4936634;28;123736;-82
2023/04/23 00:11:29;;;;;;;;;;;17.70;69.80;;;17.91;44.99;98035.81;4923920;28;114024;-84
2023/04/23 00:13:56;;;;;;;;;;;17.60;70.00;;;17.83;45.44;98028.50;4924231;28;113562;-83
2023/04/23 00:16:23;;;;;;;;;;;17.60;70.20;;;17.75;45.41;98026.78;4927812;28;124281;-81
2023/04/23 00:18:49;;;;;;;;;;;17.50;70.40;;;17.66;45.87;98032.66;4913931;28;123759;-84
2023/04/23 00:21:16;;;;;;;;;;;17.40;70.80;;;17.56;46.18;98042.50;4931162;28;114446;-81
2023/04/23 00:23:42;;;;;;;;;;;17.30;71.30;;;17.47;46.43;98028.00;4927980;28;114724;-79
2023/04/23 00:26:08;;;;;;;;;;;17.30;71.70;;;17.41;46.67;98027.53;4929460;28;124535;-82
2023/04/23 00:28:35;;;;;;;;;;;17.20;72.10;;;17.36;46.91;98035.44;4928763;28;123876;-82
2023/04/23 00:31:01;;;;;;;;;;;17.10;72.30;;;17.31;47.58;98032.97;4925224;28;114307;-83
2023/04/23 00:33:27;;;;;;;;;;;17.00;73.00;;;17.26;47.81;98036.06;4929721;28;113663;-83
2023/04/23 00:35:54;;;;;;;;;;;17.00;73.50;;;17.21;47.98;98026.03;4925772;28;124224;-85
2023/04/23 00:38:20;;;;;;;;;;;17.00;73.90;;;17.18;47.85;98038.75;4918479;28;124045;-81
2023/04/23 00:40:47;;;;;;;;;;;16.90;74.20;;;17.15;48.55;98028.34;4922684;28;116448;-83
2023/04/23 00:43:14;;;;;;;;;;;16.90;74.90;;;17.11;48.62;98046.19;4930525;28;114695;-83
2023/04/23 00:45:40;;;;;;;;;;;16.80;75.20;;;17.07;48.93;98045.34;4938292;28;124289;-81
2023/04/23 00:48:07;;;;;;;;;;;16.80;75.30;;;17.04;48.82;98046.91;4928095;28;123761;-82
2023/04/23 00:50:33;;;;;;;;;;;16.70;75.70;;;17.03;49.55;98055.63;4928084;28;114585;-84
2023/04/23 00:53:00;;;;;;;;;;;15.10;74.90;;;16.99;49.55;98050.00;4928574;28;113707;-82
2023/04/23 00:55:26;;;;;;;;;;;16.30;76.20;;;16.95;49.58;98049.13;4930432;28;124249;-81
2023/04/23 00:57:53;;;;;;;;;;;16.70;76.90;;;16.93;50.03;98057.09;4914736;28;123992;-83
2023/04/23 01:00:20;;;;;;;;;;;16.60;77.20;;;16.92;50.10;98055.47;4930179;28;113962;-80
2023/04/23 01:02:48;;;;;;;;;;;16.60;77.60;;;16.90;50.14;98055.03;4928374;28;113831;-82
2023/04/23 01:05:15;;;;;;;;;;;16.30;77.60;;;16.88;50.37;98065.78;4923045;28;124204;-82
2023/04/23 01:07:43;;;;;;;;;;;16.50;77.90;;;16.84;50.39;98064.88;4930176;28;123591;-79
2023/04/23 01:10:10;;;;;;;;;;;16.50;78.10;;;16.80;50.39;98064.84;4943326;28;114253;-82
2023/04/23 01:12:37;;;;;;;;;;;16.50;78.10;;;16.77;50.77;98063.59;4927385;28;113725;-81
2023/04/23 01:15:04;;;;;;;;;;;16.50;78.60;;;16.75;50.72;98056.75;4929880;28;123862;-79
2023/04/23 01:17:33;;;;;;;;;;;16.50;78.70;;;16.76;50.57;98063.91;4926327;28;124189;-82
2023/04/23 01:19:59;;;;;;;;;;;16.40;78.70;;;16.76;50.63;98063.91;4931888;28;114001;-81
2023/04/23 01:22:25;;;;;;;;;;;16.50;79.00;;;16.78;50.90;98062.41;4926483;28;114025;-79
2023/04/23 01:24:55;;;;;;;;;;;16.50;79.20;;;16.79;50.81;98063.19;4931314;28;124284;-82
2023/04/23 01:27:23;;;;;;;;;;;16.50;79.30;;;16.76;50.79;98073.13;4932051;28;124680;-79
2023/04/23 01:29:50;;;;;;;;;;;16.50;79.30;;;16.73;50.71;98076.63;4948272;28;114574;-80
2023/04/23 01:32:16;;;;;;;;;;;16.40;79.30;;;16.70;50.71;98069.00;4933935;28;114731;-81
2023/04/23 01:34:46;;;;;;;;;;;16.40;79.20;;;16.69;50.75;98075.78;4931379;28;124855;-81
2023/04/23 01:37:12;;;;;;;;;;;16.40;79.30;;;16.68;50.88;98078.91;4932512;28;124032;-80
2023/04/23 01:39:39;;;;;;;;;;;16.40;79.60;;;16.65;51.09;98080.47;4933656;28;115010;-81
2023/04/23 01:42:06;;;;;;;;;;;16.40;79.80;;;16.64;51.20;98083.66;4931358;28;112756;-83
2023/04/23 01:44:32;;;;;;;;;;;16.30;79.80;;;16.60;51.04;98077.97;4916613;28;124022;-81
2023/04/23 01:46:58;;;;;;;;;;;16.30;80.00;;;16.56;51.41;98085.50;4931963;28;126312;-78
2023/04/23 01:49:25;;;;;;;;;;;16.30;80.40;;;16.52;51.33;98079.03;4933241;28;113385;-83
2023/04/23 01:51:51;;;;;;;;;;;16.20;80.30;;;16.51;51.56;98074.63;4932189;28;113773;-79
2023/04/23 01:54:18;;;;;;;;;;;16.30;80.90;;;16.50;51.52;98078.59;4932675;28;123536;-81
2023/04/23 01:56:44;;;;;;;;;;;16.20;80.70;;;16.51;51.77;98083.00;4930981;28;125113;-79
2023/04/23 01:59:10;;;;;;;;;;;16.20;80.70;;;16.52;51.63;98082.66;4931151;28;114690;-77
2023/04/23 02:01:42;;;;;;;;;;;16.30;80.90;;;16.53;51.75;98089.03;4931120;28;113544;-79
2023/04/23 02:04:10;;;;;;;;;;;16.20;81.10;;;16.53;52.00;98089.03;4930205;28;124982;-78
2023/04/23 02:06:37;;;;;;;;;;;16.30;81.30;;;16.53;51.98;98086.22;4928298;28;123121;-78
2023/04/23 02:09:03;;;;;;;;;;;16.20;81.30;;;16.54;51.98;98082.25;4926254;28;115178;-79
2023/04/23 02:11:29;;;;;;;;;;;16.20;81.40;;;16.56;51.87;98077.13;4933169;28;111996;-82
2023/04/23 02:13:56;;;;;;;;;;;16.20;81.70;;;16.54;52.15;98090.63;4916817;28;123685;-78
2023/04/23 02:16:23;;;;;;;;;;;16.20;81.60;;;16.55;52.13;98108.97;4930828;28;124477;-79
2023/04/23 02:18:49;;;;;;;;;;;16.30;81.90;;;16.55;52.09;98103.41;4930558;28;115203;-79
2023/04/23 02:21:16;;;;;;;;;;;16.30;82.40;;;16.53;52.21;98117.72;4931896;28;114782;-82
2023/04/23 02:23:42;;;;;;;;;;;16.20;82.30;;;16.49;52.51;98110.44;4928454;28;125088;-82
2023/04/23 02:26:08;;;;;;;;;;;16.20;82.50;;;16.48;52.78;98115.22;4932019;28;125442;-80
2023/04/23 02:28:35;;;;;;;;;;;16.20;82.80;;;16.45;52.90;98104.00;4932622;28;113999;-80
2023/04/23 02:31:01;;;;;;;;;;;16.20;83.10;;;16.41;53.15;98105.91;4931031;28;113598;-80
2023/04/23 02:33:27;;;;;;;;;;;17.60;84.90;;;16.39;53.41;98103.50;4931899;28;124563;-78
2023/04/23 02:35:53;;;;;;;;;;;16.20;84.20;;;16.36;53.53;98109.78;4930435;28;124389;-78
2023/04/23 02:38:20;;;;;;;;;;;16.10;84.30;;;16.36;53.95;98107.00;4931376;28;114812;-79
2023/04/23 02:40:46;;;;;;;;;;;16.10;84.70;;;16.32;53.98;98095.78;4927109;28;113761;-78
2023/04/23 02:43:12;;;;;;;;;;;16.10;85.20;;;16.31;54.29;98099.75;4926354;28;124176;-79
2023/04/23 02:45:39;;;;;;;;;;;16.10;85.60;;;16.30;54.35;98103.69;4927081;28;124248;-78
2023/04/23 02:48:05;;;;;;;;;;;16.10;86.10;;;16.29;54.63;98095.72;4944491;28;113876;-78
2023/04/23 02:50:31;;;;;;;;;;;16.10;86.10;;;16.28;54.82;98091.31;4933209;28;113658;-78
2023/04/23 02:52:57;;;;;;;;;;;16.00;86.50;;;16.27;54.76;98087.72;4933636;28;123907;-82
2023/04/23 02:55:24;;;;;;;;;;;16.00;86.90;;;16.24;55.03;98088.47;4931514;28;123684;-81
2023/04/23 02:57:53;;;;;;;;;;;16.00;86.90;;;16.26;55.03;98096.47;4930384;28;114381;-78
2023/04/23 03:00:19;;;;;;;;;;;16.00;87.10;;;16.26;55.06;98097.25;4930787;28;112608;-81
2023/04/23 03:02:45;;;;;;;;;;;16.00;87.50;;;16.25;55.39;98112.34;4927028;28;124149;-78
2023/04/23 03:05:11;;;;;;;;;;;16.00;87.70;;;16.26;55.37;98114.00;4930348;28;124531;-80
2023/04/23 03:07:38;;;;;;;;;;;16.00;87.90;;;16.25;55.68;98117.94;4928849;28;115650;-78
2023/04/23 03:10:05;;;;;;;;;;;16.00;88.10;;;16.22;55.41;98115.88;4930497;28;115071;-79
2023/04/23 03:12:31;;;;;;;;;;;16.00;88.40;;;16.19;55.72;98113.84;4927410;28;124794;-80
2023/04/23 03:14:58;;;;;;;;;;;15.90;88.50;;;16.18;55.90;98112.22;4931540;28;124048;-82
2023/04/23 03:17:24;;;;;;;;;;;15.90;88.80;;;16.18;56.00;98103.88;4927839;28;114535;-78
2023/04/23 03:19:50;;;;;;;;;;;15.90;89.20;;;16.15;56.04;98099.03;4928695;28;114313;-81
2023/04/23 03:22:17;;;;;;;;;;;15.90;89.30;;;16.15;56.16;98103.78;4929964;28;123949;-80
2023/04/23 03:24:43;;;;;;;;;;;15.90;89.60;;;16.12;56.18;98100.56;4921128;28;124125;-79
2023/04/23 03:27:09;;;;;;;;;;;15.90;89.70;;;16.11;56.09;98101.72;4939213;28;114356;-80
2023/04/23 03:29:36;;;;;;;;;;;15.80;89.80;;;16.09;56.38;98092.94;4930126;28;114140;-78
2023/04/23 03:32:05;;;;;;;;;;;15.80;90.00;;;16.10;56.70;98090.97;4926229;28;124908;-79
2023/04/23 03:34:31;;;;;;;;;;;15.80;90.20;;;16.10;56.57;98094.53;4922245;28;123915;-81
2023/04/23 03:36:58;;;;;;;;;;;15.80;90.20;;;16.11;56.49;98090.56;4929881;28;114379;-77
2023/04/23 03:39:24;;;;;;;;;;;15.80;90.40;;;16.10;56.75;98093.75;4929458;28;113775;-79
2023/04/23 03:41:50;;;;;;;;;;;15.80;90.50;;;16.08;56.82;98096.88;4933270;28;124107;-79
2023/04/23 03:44:16;;;;;;;;;;;15.80;90.70;;;16.09;57.33;98092.13;4930155;28;122809;-78
2023/04/23 03:46:43;;;;;;;;;;;15.80;90.80;;;16.10;56.95;98090.97;4924532;28;114245;-79
2023/04/23 03:49:11;;;;;;;;;;;15.80;90.90;;;16.09;57.39;98092.13;4916841;28;113885;-79
2023/04/23 03:51:38;;;;;;;;;;;15.80;91.00;;;16.09;57.20;98081.81;4929770;28;124224;-81
2023/04/23 03:54:04;;;;;;;;;;;15.80;91.10;;;16.10;57.61;98077.81;4932664;28;124660;-80
2023/04/23 03:56:30;;;;;;;;;;;15.80;91.20;;;16.11;57.38;98089.78;4929344;28;115326;-77
2023/04/23 03:58:57;;;;;;;;;;;15.80;91.20;;;16.09;57.24;98101.31;4929407;28;114661;-79
2023/04/23 04:01:23;;;;;;;;;;;15.80;91.30;;;16.08;57.29;98105.25;4929531;28;124012;-78
2023/04/23 04:03:49;;;;;;;;;;;15.80;91.30;;;16.04;57.63;98106.34;4928767;28;126649;-79
2023/04/23 04:06:15;;;;;;;;;;;15.80;91.40;;;16.01;57.57;98109.84;4929787;28;114284;-78
2023/04/23 04:08:42;;;;;;;;;;;15.70;91.40;;;15.99;57.47;98109.44;4931468;28;112762;-79
2023/04/23 04:11:08;;;;;;;;;;;15.80;91.50;;;15.99;57.55;98115.00;4929039;28;124281;-78
2023/04/23 04:13:34;;;;;;;;;;;15.70;91.50;;;16.00;57.67;98117.41;4929585;28;125769;-81
2023/04/23 04:16:00;;;;;;;;;;;16.00;91.70;;;15.99;57.82;98120.59;4929782;28;114367;-80
2023/04/23 04:18:27;;;;;;;;;;;15.70;91.70;;;15.98;57.93;98113.38;4929567;28;113703;-81
2023/04/23 04:20:53;;;;;;;;;;;15.70;91.70;;;15.97;57.86;98109.00;4928564;28;124066;-79
2023/04/23 04:23:20;;;;;;;;;;;15.70;91.70;;;15.95;57.75;98109.34;4927716;28;123877;-79
2023/04/23 04:25:46;;;;;;;;;;;16.30;92.00;;;15.94;57.83;98112.50;4927652;28;112891;-78
2023/04/23 04:28:13;;;;;;;;;;;15.70;91.80;;;15.90;57.82;98110.47;4930168;28;114306;-78
2023/04/23 04:30:41;;;;;;;;;;;15.60;91.90;;;15.86;57.95;98112.34;4928780;28;124517;-78
2023/04/23 04:33:07;;;;;;;;;;;15.60;91.90;;;15.84;58.01;98116.66;4932011;28;124152;-77
2023/04/23 04:35:34;;;;;;;;;;;15.60;92.00;;;15.81;57.95;98121.00;4928103;28;115096;-84
2023/04/23 04:38:00;;;;;;;;;;;15.60;92.00;;;15.78;58.21;98115.34;4929820;28;114331;-78
2023/04/23 04:40:27;;;;;;;;;;;15.50;92.10;;;15.73;58.05;98127.56;4929394;28;124660;-78
2023/04/23 04:42:53;;;;;;;;;;;15.50;92.10;;;15.69;58.10;98118.34;4922309;28;123799;-79
2023/04/23 04:45:20;;;;;;;;;;;15.40;92.10;;;15.65;58.09;98126.56;4922671;28;115313;-80
2023/04/23 04:47:46;;;;;;;;;;;15.40;92.10;;;15.63;58.29;98111.38;4923730;28;114725;-78
2023/04/23 04:50:12;;;;;;;;;;;15.40;92.10;;;15.61;58.06;98111.75;4921336;28;123918;-79
2023/04/23 04:52:38;;;;;;;;;;;15.40;92.10;;;15.61;58.33;98113.75;4926829;28;124189;-77
2023/04/23 04:55:08;;;;;;;;;;;15.40;92.20;;;15.61;58.46;98111.75;4920350;28;114249;-79
2023/04/23 04:57:35;;;;;;;;;;;15.40;92.30;;;15.61;58.18;98111.75;4926356;28;113776;-79
2023/04/23 05:00:21;;;;;;;;;;;15.40;92.30;;;15.61;58.37;98117.34;4928564;28;124369;-81
2023/04/23 05:02:51;;;;;;;;;;;15.30;92.30;;;15.62;58.40;98116.16;4931712;28;123973;-79
2023/04/23 05:05:18;;;;;;;;;;;15.40;92.40;;;15.64;58.42;98107.44;4932666;28;114627;-79
2023/04/23 05:07:45;;;;;;;;;;;15.30;92.40;;;15.66;58.34;98107.88;4929433;28;113758;-77
2023/04/23 05:10:13;;;;;;;;;;;15.40;92.40;;;15.65;57.92;98106.28;4930770;28;124097;-78
2023/04/23 05:12:40;;;;;;;;;;;15.40;92.50;;;15.67;58.31;98120.66;4949416;28;123616;-78
2023/04/23 05:15:08;;;;;;;;;;;15.40;92.40;;;15.68;58.40;98119.47;4932344;28;114364;-77
2023/04/23 05:17:35;;;;;;;;;;;15.40;92.50;;;15.68;58.23;98113.88;4937589;28;114307;-79
2023/04/23 05:20:02;;;;;;;;;;;15.40;92.50;;;15.70;58.28;98114.38;4927997;28;123850;-83
2023/04/23 05:22:28;;;;;;;;;;;15.40;92.60;;;15.73;58.40;98104.47;4916313;28;123732;-77
2023/04/23 05:24:55;;;;;;;;;;;15.40;92.60;;;15.75;58.32;98104.94;4925347;28;114243;-77
2023/04/23 05:27:21;;;;;;;;;;;15.40;92.60;;;15.77;58.37;98114.53;4927619;28;114491;-79
2023/04/23 05:29:47;;;;;;;;;;;15.40;92.60;;;15.79;58.17;98106.59;4939790;28;123396;-78
2023/04/23 05:32:14;;;;;;;;;;;15.40;92.60;;;15.82;57.96;98119.81;4922559;28;124274;-80
2023/04/23 05:34:40;;;;;;;;;;;15.40;92.70;;;15.82;58.30;98128.16;4926091;28;115349;-80
2023/04/23 05:37:06;;;;;;;;;;;15.40;92.70;;;15.81;58.17;98129.34;4933458;28;113749;-78
2023/04/23 05:39:33;;;;;;;;;;;15.50;92.70;;;15.83;57.99;98117.84;4931045;28;124237;-81
2023/04/23 05:41:59;;;;;;;;;;;15.40;92.70;;;15.84;58.15;98113.88;4931897;28;124376;-80
2023/04/23 05:44:26;;;;;;;;;;;15.50;92.80;;;15.87;58.45;98124.28;4936353;28;114408;-80
2023/04/23 05:46:53;;;;;;;;;;;15.50;92.90;;;15.91;58.17;98119.63;4935140;28;113693;-78
2023/04/23 05:49:19;;;;;;;;;;;15.50;92.90;;;15.94;58.11;98118.88;4931840;28;124426;-79
2023/04/23 05:51:45;;;;;;;;;;;15.50;92.90;;;15.98;58.30;98116.97;4933139;28;123524;-79
2023/04/23 05:54:11;;;;;;;;;;;15.60;93.00;;;16.04;58.33;98114.69;4931088;28;114403;-77
2023/04/23 05:56:38;;;;;;;;;;;15.60;93.00;;;16.09;58.01;98125.56;4920460;28;113838;-80
2023/04/23 05:59:05;;;;;;;;;;;15.70;93.00;;;16.10;57.85;98116.84;4916650;28;124189;-78
2023/04/23 06:01:31;;;;;;;;;;;15.70;93.00;;;16.12;58.01;98116.50;4926456;28;125487;-80
2023/04/23 06:03:57;;;;;;;;;;;15.70;93.00;;;16.13;57.74;98118.91;4928711;28;114480;-83
2023/04/23 06:06:23;;;;;;;;;;;15.70;92.90;;;16.14;57.77;98122.47;4931573;28;113537;-78
2023/04/23 06:08:50;;;;;;;;;;;15.70;92.90;;;16.17;57.82;98120.94;4929281;28;124090;-78
2023/04/23 06:11:16;;;;;;;;;;;15.70;92.90;;;16.21;57.54;98119.06;4931513;28;123557;-79
2023/04/23 06:13:42;;;;;;;;;;;15.70;92.90;;;16.22;57.68;98106.72;4930946;28;114376;-79
2023/04/23 06:16:09;;;;;;;;;;;15.80;92.90;;;16.22;57.62;98120.66;4928945;28;113512;-83
2023/04/23 06:18:36;;;;;;;;;;;15.80;92.90;;;16.21;57.64;98127.41;4925708;28;124822;-83
2023/04/23 06:21:03;;;;;;;;;;;15.80;92.80;;;16.13;57.61;98132.03;4930119;28;124075;-81
2023/04/23 06:23:30;;;;;;;;;;;15.80;92.70;;;16.13;57.46;98126.44;4929698;28;115965;-79
2023/04/23 06:25:56;;;;;;;;;;;15.80;92.70;;;16.17;57.82;98121.75;4921202;28;114770;-79
2023/04/23 06:28:23;;;;;;;;;;;15.80;92.80;;;16.21;57.44;98133.78;4929211;28;124782;-78
2023/04/23 06:30:49;;;;;;;;;;;15.80;92.80;;;16.24;57.43;98127.47;4947714;28;123390;-81
2023/04/23 06:33:16;;;;;;;;;;;16.70;93.10;;;16.28;57.45;98120.00;4933382;28;114610;-79
2023/04/23 06:35:42;;;;;;;;;;;15.90;92.70;;;16.32;57.20;98123.66;4928132;28;113072;-79
2023/04/23 06:38:08;;;;;;;;;;;15.90;92.70;;;16.39;57.05;98117.44;4931701;28;123944;-79
2023/04/23 06:40:34;;;;;;;;;;;16.00;92.70;;;16.40;57.00;98113.47;4930105;28;123862;-78
2023/04/23 06:43:03;;;;;;;;;;;16.00;92.60;;;16.45;56.83;98112.38;4930251;28;114213;-80
2023/04/23 06:45:32;;;;;;;;;;;16.00;92.60;;;16.48;56.55;98106.06;4919487;28;114072;-79
2023/04/23 06:47:58;;;;;;;;;;;16.00;92.50;;;16.49;56.72;98108.44;4939763;28;124487;-78
2023/04/23 06:50:24;;;;;;;;;;;16.10;92.50;;;16.50;56.51;98103.72;4922314;28;124079;-78
2023/04/23 06:52:51;;;;;;;;;;;16.10;92.40;;;16.56;56.48;98105.81;4929771;28;114620;-81
2023/04/23 06:55:18;;;;;;;;;;;16.20;92.40;;;16.64;56.55;98097.59;4932350;28;112205;-80
2023/04/23 06:57:44;;;;;;;;;;;16.20;92.40;;;16.71;56.34;98095.75;4928542;28;123775;-81
2023/04/23 07:00:13;;;;;;;;;;;16.20;92.30;;;16.81;55.77;98090.75;4917851;28;123939;-77
2023/04/23 07:02:40;;;;;;;;;;;16.30;92.30;;;16.89;55.45;98087.69;4930772;28;114602;-74
2023/04/23 07:05:06;;;;;;;;;;;16.40;92.10;;;16.96;55.22;98079.47;4933749;28;113706;-75
2023/04/23 07:07:36;;;;;;;;;;;16.50;92.00;;;17.09;55.03;98079.28;4933386;28;123892;-77
2023/04/23 07:10:03;;;;;;;;;;;16.50;91.90;;;17.16;54.87;98077.38;4926540;28;123834;-79
2023/04/23 07:12:30;;;;;;;;;;;16.60;91.90;;;17.25;54.61;98071.56;4924292;28;115477;-77
2023/04/23 07:14:56;;;;;;;;;;;16.70;91.70;;;17.34;54.31;98074.88;4929972;28;114592;-79
2023/04/23 07:17:22;;;;;;;;;;;16.70;91.60;;;17.37;53.38;98067.75;4931338;28;124049;-76
2023/04/23 07:19:49;;;;;;;;;;;16.80;91.10;;;17.37;53.43;98065.75;4928757;28;124547;-82
2023/04/23 07:22:16;;;;;;;;;;;16.80;91.00;;;17.37;53.43;98076.13;4927977;28;113991;-81
2023/04/23 07:24:42;;;;;;;;;;;16.90;90.90;;;17.35;53.26;98073.69;4915666;28;113935;-84
2023/04/23 07:27:08;;;;;;;;;;;16.90;90.80;;;17.37;53.09;98073.34;4928529;28;124375;-79
2023/04/23 07:29:35;;;;;;;;;;;16.90;90.60;;;17.39;53.24;98080.16;4931305;28;122958;-83
2023/04/23 07:32:01;;;;;;;;;;;17.00;90.50;;;17.39;52.32;98071.78;4929413;28;114127;-82
2023/04/23 07:34:27;;;;;;;;;;;17.00;90.20;;;17.41;52.16;98063.84;4929522;28;113427;-80
2023/04/23 07:36:55;;;;;;;;;;;17.00;90.10;;;17.49;52.13;98072.31;4927310;28;124535;-82
2023/04/23 07:39:21;;;;;;;;;;;17.10;90.10;;;17.53;51.75;98064.78;4928536;28;123681;-80
2023/04/23 07:41:48;;;;;;;;;;;17.10;89.90;;;17.57;51.61;98069.25;4929900;28;114842;-82
2023/04/23 07:44:14;;;;;;;;;;;17.10;89.60;;;17.52;51.63;98061.19;4944344;28;113832;-82
2023/04/23 07:46:40;;;;;;;;;;;17.10;89.40;;;17.50;51.68;98060.75;4928546;28;124366;-82
2023/04/23 07:49:07;;;;;;;;;;;17.10;89.40;;;17.53;51.43;98067.59;4930197;28;123830;-84
2023/04/23 07:51:33;;;;;;;;;;;17.20;89.30;;;17.52;51.51;98058.41;4927978;28;114418;-79
2023/04/23 07:53:59;;;;;;;;;;;17.20;89.00;;;17.52;51.63;98052.81;4929321;28;113450;-77
2023/04/23 07:56:26;;;;;;;;;;;17.20;89.00;;;17.55;51.46;98054.06;4928545;28;124361;-80
2023/04/23 07:58:57;;;;;;;;;;;17.20;89.00;;;17.60;51.53;98056.53;4929079;28;124204;-79
2023/04/23 08:01:24;;;;;;;;;;;15.90;87.60;;;17.63;51.03;98058.56;4915505;28;115422;-81
2023/04/23 08:03:50;;;;;;;;;;;17.30;88.50;;;17.64;51.04;98055.38;4927068;28;115051;-83
2023/04/23 08:06:17;;;;;;;;;;;17.30;88.30;;;17.69;50.94;98056.25;4931105;28;123518;-83
2023/04/23 08:08:43;;;;;;;;;;;17.30;88.20;;;17.75;50.83;98060.31;4928248;28;123742;-80
2023/04/23 08:11:10;;;;;;;;;;;17.30;88.00;;;17.79;50.28;98048.03;4929017;28;114622;-77
2023/04/23 08:13:37;;;;;;;;;;;17.40;87.70;;;17.84;50.19;98038.53;4938109;28;113229;-77
2023/04/23 08:16:03;;;;;;;;;;;17.40;87.20;;;17.83;49.28;98034.09;4929106;28;124186;-81
2023/04/23 08:18:29;;;;;;;;;;;17.40;86.00;;;17.85;49.01;98037.31;4928919;28;124177;-77
2023/04/23 08:20:56;;;;;;;;;;;17.40;85.60;;;17.87;49.51;98027.38;4928528;28;113638;-83
2023/04/23 08:23:23;;;;;;;;;;;17.40;85.70;;;17.93;49.09;98030.66;4926325;28;113963;-79
2023/04/23 08:25:49;;;;;;;;;;;17.50;85.90;;;17.99;49.33;98037.50;4921509;28;124320;-80
2023/04/23 08:28:16;;;;;;;;;;;17.60;86.10;;;18.03;49.47;98024.38;4919509;28;123882;-79
2023/04/23 08:30:45;;;;;;;;;;;17.60;86.30;;;18.07;49.64;98030.81;4927327;28;114825;-77
2023/04/23 08:33:11;;;;;;;;;;;17.70;86.40;;;18.14;49.65;98032.09;4942535;28;113157;-78
2023/04/23 08:35:38;;;;;;;;;;;17.70;86.50;;;18.18;49.45;98024.53;4921031;28;126469;-77
2023/04/23 08:38:04;;;;;;;;;;;17.70;86.40;;;18.21;49.38;98018.19;4924125;28;124551;-78
2023/04/23 08:40:31;;;;;;;;;;;17.80;87.10;;;18.19;49.17;98024.16;4911449;28;112810;-79
2023/04/23 08:43:01;;;;;;;;;;;17.80;86.00;;;18.15;49.02;98026.09;4928049;28;113699;-77
2023/04/23 08:45:29;;;;;;;;;;;17.70;85.80;;;18.14;49.29;98018.13;4919425;28;124873;-79
2023/04/23 08:47:58;;;;;;;;;;;17.70;85.90;;;18.19;49.16;98020.53;4935860;28;123233;-80
2023/04/23 08:50:25;;;;;;;;;;;17.70;85.90;;;18.22;49.25;98026.19;4922889;28;115389;-77
2023/04/23 08:52:53;;;;;;;;;;;17.70;85.80;;;18.28;49.07;98023.88;4927358;28;115004;-86
2023/04/23 08:55:20;;;;;;;;;;;17.90;85.90;;;18.35;48.74;98018.34;4924983;28;123480;-83
2023/04/23 08:57:47;;;;;;;;;;;17.80;85.40;;;18.37;48.41;98021.53;4926943;28;123976;-79
2023/04/23 09:00:15;;;;;;;;;;;17.90;85.00;;;18.35;48.09;98023.13;4923847;28;114712;-80
2023/04/23 09:02:43;;;;;;;;;;;17.90;84.60;;;18.34;47.72;98011.13;4923234;28;114138;-70
2023/04/23 09:05:10;;;;;;;;;;;17.80;83.80;;;18.35;47.38;98007.16;4927832;28;124940;-71
2023/04/23 09:07:36;;;;;;;;;;;17.90;83.40;;;18.41;47.75;98011.22;4929539;28;124080;-69
2023/04/23 09:10:06;;;;;;;;;;;17.90;83.90;;;18.51;48.00;98010.53;4927202;28;114365;-69
2023/04/23 09:12:36;;;;;;;;;;;18.00;84.30;;;18.61;46.49;97994.22;4924496;28;113837;-69
2023/04/23 09:15:13;;;;;;;;;;;18.00;82.60;;;18.62;46.33;98016.22;4919367;28;124852;-72
2023/04/23 09:17:42;;;;;;;;;;;18.10;82.20;;;18.63;45.36;98001.03;4926625;28;123980;-70
2023/04/23 09:20:08;;;;;;;;;;;18.10;80.70;;;18.65;45.31;97995.88;4914405;28;114557;-73
2023/04/23 09:22:39;;;;;;;;;;;18.20;80.20;;;18.73;45.69;97996.72;4925810;28;113780;-71
2023/04/23 09:25:07;;;;;;;;;;;18.30;80.90;;;18.84;45.33;97983.66;4926040;28;124174;-71
2023/04/23 09:27:35;;;;;;;;;;;18.30;80.60;;;18.94;45.19;97980.16;4931518;28;124496;-73
2023/04/23 09:30:06;;;;;;;;;;;18.40;80.40;;;19.07;45.12;97979.81;4926498;28;115234;-69
2023/04/23 09:32:37;;;;;;;;;;;18.50;80.50;;;19.23;45.82;97974.72;4930623;28;114222;-70
2023/04/23 09:35:04;;;;;;;;;;;18.60;81.40;;;19.39;44.99;97980.81;4927757;28;124481;-70
2023/04/23 09:37:31;;;;;;;;;;;18.80;80.80;;;19.45;43.54;97969.25;4929418;28;124224;-72
2023/04/23 09:39:59;;;;;;;;;;;18.80;78.50;;;19.47;43.27;97964.84;4928470;28;114480;-72
2023/04/23 09:42:26;;;;;;;;;;;18.90;78.20;;;19.48;42.78;97965.66;4925449;28;115167;-72
2023/04/23 09:44:59;;;;;;;;;;;18.90;76.90;;;19.52;42.82;97961.69;4927468;28;124615;-70
2023/04/23 09:47:28;;;;;;;;;;;19.00;77.00;;;19.54;41.36;97958.50;4931191;28;124756;-72
2023/04/23 09:49:56;;;;;;;;;;;19.00;74.60;;;19.53;41.41;97957.72;4931406;28;114354;-70
2023/04/23 09:52:22;;;;;;;;;;;19.10;74.30;;;19.55;41.78;97949.69;4928893;28;113814;-73
2023/04/23 09:54:49;;;;;;;;;;;19.10;74.60;;;19.62;42.08;97949.72;4929459;28;124411;-70
2023/04/23 09:57:16;;;;;;;;;;;19.10;75.30;;;19.69;41.78;97940.56;4931409;28;124309;-71
2023/04/23 09:59:42;;;;;;;;;;;19.20;74.60;;;19.76;41.00;97943.41;4927949;28;115597;-70
2023/04/23 10:02:10;;;;;;;;;;;19.20;73.90;;;19.81;41.16;97943.03;4930540;28;114022;-70
2023/04/23 10:04:39;;;;;;;;;;;19.30;74.00;;;19.86;40.26;97947.44;4925962;28;124868;-69
2023/04/23 10:07:07;;;;;;;;;;;19.30;72.50;;;19.89;40.64;97934.66;4928929;28;123954;-71
2023/04/23 10:09:33;;;;;;;;;;;19.40;72.90;;;19.95;40.64;97933.06;4929523;28;114840;-70
2023/04/23 10:12:01;;;;;;;;;;;19.50;73.50;;;20.00;39.57;97936.28;4929567;28;113807;-71
2023/04/23 10:14:28;;;;;;;;;;;19.50;71.70;;;20.03;39.27;97940.28;4926861;28;124833;-70
2023/04/23 10:17:02;;;;;;;;;;;19.60;70.60;;;20.07;38.61;97925.09;4925801;28;124129;-73
2023/04/23 10:19:29;;;;;;;;;;;19.60;69.70;;;20.09;38.58;97924.66;4930172;28;114703;-71
2023/04/23 10:22:06;;;;;;;;;;;19.60;69.20;;;20.14;38.60;97915.88;4930180;28;114639;-69
2023/04/23 10:24:40;;;;;;;;;;;19.70;69.00;;;20.22;39.35;97911.06;4926041;28;124447;-70
2023/04/23 10:27:14;;;;;;;;;;;19.70;70.20;;;20.31;38.71;97908.69;4942193;28;124093;-69
2023/04/23 10:29:43;;;;;;;;;;;19.80;68.80;;;20.35;38.31;97903.06;4928598;28;116111;-71
2023/04/23 10:32:10;;;;;;;;;;;19.80;68.30;;;20.35;38.58;97911.50;4932850;28;114751;-71
2023/04/23 10:34:38;;;;;;;;;;;19.80;68.50;;;20.33;38.20;97902.66;4928936;28;124388;-69
2023/04/23 10:37:06;;;;;;;;;;;19.80;67.90;;;20.36;38.48;97897.06;4930424;28;124715;-73
2023/04/23 10:39:33;;;;;;;;;;;19.80;68.40;;;20.42;38.79;97895.47;4933668;28;114408;-70
2023/04/23 10:42:01;;;;;;;;;;;19.90;68.40;;;20.51;38.90;97890.25;4932277;28;113448;-70
2023/04/23 10:44:32;;;;;;;;;;;20.00;68.90;;;20.62;38.27;97893.09;4927864;28;124177;-71
2023/04/23 10:47:02;;;;;;;;;;;20.10;68.70;;;20.62;38.00;97881.84;4929077;28;124646;-72
2023/04/23 10:49:32;;;;;;;;;;;20.10;67.10;;;20.68;37.64;97883.03;4925200;28;114666;-74
2023/04/23 10:52:18;;;;;;;;;;;20.10;67.40;;;20.74;36.79;97875.84;4928483;28;114099;-77
2023/04/23 10:54:49;;;;;;;;;;;20.10;66.10;;;20.76;36.98;97874.63;4923656;28;124297;-76
2023/04/23 10:57:15;;;;;;;;;;;20.20;66.10;;;20.81;36.91;97871.41;4930212;28;124413;-74
2023/04/23 10:59:53;;;;;;;;;;;20.30;66.00;;;20.85;36.73;97864.59;4929132;28;114532;-77
2023/04/23 11:02:22;;;;;;;;;;;20.40;65.70;;;20.90;36.39;97864.19;4933590;28;114078;-75
2023/04/23 11:04:56;;;;;;;;;;;20.40;65.10;;;20.97;36.50;97857.72;4928423;28;123939;-77
2023/04/23 11:07:30;;;;;;;;;;;20.40;65.00;;;21.05;36.41;97853.69;4915885;28;124232;-76
2023/04/23 11:10:12;;;;;;;;;;;20.50;65.00;;;21.07;35.79;97861.72;4919492;28;114596;-75